Time;durP1;ratioP1;P1;durP2;ratioP2;P2;SDS_P1;SDS_P2;PMS_P1;PMS_P2;Temp;Humidity;BMP_temperature;BMP_pressure;BME280_temperature;BME280_humidity;BME280_pressure;Samples;Min_cycle;Max_cycle;Signal;HPM_P1;HPM_P2
2022/05/29 00:00:00;;;;;;;5.07;2.20;;;;;;;11.30;51.19;100004.38;5053085;28;20235;-58
2022/05/29 00:02:26;;;;;;;6.20;2.03;;;;;;;11.38;51.14;99990.22;5058301;28;20232;-58
2022/05/29 00:04:51;;;;;;;7.40;2.17;;;;;;;11.34;51.01;99986.16;5053289;28;20255;-58
2022/05/29 00:07:17;;;;;;;5.50;2.10;;;;;;;11.27;51.57;99996.00;5052722;28;20228;-58
2022/05/29 00:09:47;;;;;;;7.60;2.00;;;;;;;11.12;51.22;99997.72;5049150;28;20181;-59
2022/05/29 00:12:13;;;;;;;6.20;1.97;;;;;;;10.97;51.51;100000.25;5070472;28;20250;-60
2022/05/29 00:14:40;;;;;;;9.93;1.83;;;;;;;11.00;51.65;99996.69;5067909;28;20656;-59
2022/05/29 00:17:05;;;;;;;6.07;2.07;;;;;;;11.02;51.97;100001.75;5051297;28;20176;-58
2022/05/29 00:19:31;;;;;;;6.90;2.40;;;;;;;10.94;52.12;100002.19;5052566;28;20221;-58
2022/05/29 00:21:57;;;;;;;4.13;1.90;;;;;;;11.01;51.98;99993.19;5057087;28;20237;-58
2022/05/29 00:24:23;;;;;;;5.80;1.83;;;;;;;11.04;51.79;100002.47;5051576;28;20185;-60
2022/05/29 00:26:48;;;;;;;5.73;2.33;;;;;;;11.02;52.35;99999.19;5050834;28;20173;-58
2022/05/29 00:29:14;;;;;;;4.17;1.53;;;;;;;11.18;52.35;99991.41;5052838;28;20178;-59
2022/05/29 00:31:39;;;;;;;7.27;1.60;;;;;;;11.26;51.66;99989.19;5054458;28;20239;-59
2022/05/29 00:34:04;;;;;;;7.43;2.10;;;;;;;11.15;52.02;99995.00;5055542;28;20178;-59
2022/05/29 00:36:33;;;;;;;3.37;1.80;;;;;;;11.19;51.96;99993.88;5052247;28;20253;-59
2022/05/29 00:38:59;;;;;;;5.53;2.50;;;;;;;11.20;51.65;99995.53;5051279;28;20177;-59
2022/05/29 00:41:32;;;;;;;7.27;2.20;;;;;;;11.10;51.87;99992.69;5052764;28;20254;-59
2022/05/29 00:44:14;;;;;;;2.57;1.80;;;;;;;11.21;52.11;99986.91;5051209;28;20192;-59
2022/05/29 00:46:50;;;;;;;7.10;1.90;;;;;;;11.20;52.22;99984.41;5050685;28;20188;-59
2022/05/29 00:49:18;;;;;;;7.23;2.13;;;;;;;11.16;52.20;99988.91;5051012;28;20195;-59
2022/05/29 00:51:48;;;;;;;4.10;1.97;;;;;;;11.23;52.73;99985.06;5040221;28;20302;-60
2022/05/29 00:54:15;;;;;;;5.20;1.80;;;;;;;10.96;53.00;99990.06;5065550;28;20609;-59
2022/05/29 00:56:41;;;;;;;3.67;1.70;;;;;;;10.99;52.95;99987.34;5066894;28;20177;-59
2022/05/29 00:59:11;;;;;;;4.80;1.90;;;;;;;10.91;53.26;99980.03;5050852;28;20189;-58
2022/05/29 01:01:36;;;;;;;4.63;1.90;;;;;;;10.79;53.74;99973.03;5042054;28;20224;-59
2022/05/29 01:04:02;;;;;;;5.83;1.80;;;;;;;10.89;53.88;99974.16;5055390;28;20185;-59
2022/05/29 01:06:28;;;;;;;3.70;1.70;;;;;;;10.98;53.15;99973.63;5051478;28;20282;-60
2022/05/29 01:08:55;;;;;;;5.37;2.03;;;;;;;11.00;53.30;99977.84;5045143;28;20182;-60
2022/05/29 01:11:34;;;;;;;5.90;2.00;;;;;;;11.01;54.13;99974.38;5051015;28;20676;-59
2022/05/29 01:14:11;;;;;;;4.50;1.97;;;;;;;11.07;54.08;99972.25;5049833;28;20181;-59
2022/05/29 01:17:02;;;;;;;3.73;1.40;;;;;;;11.02;54.23;99969.13;5051316;28;20284;-60
2022/05/29 01:19:49;;;;;;;6.30;2.30;;;;;;;11.01;54.81;99969.22;5066763;28;20237;-59
2022/05/29 01:22:42;;;;;;;3.70;1.90;;;;;;;10.97;54.73;99976.28;5057963;28;20280;-60
2022/05/29 01:25:46;;;;;;;5.70;1.73;;;;;;;10.91;55.02;99979.22;5051376;28;20688;-59
2022/05/29 01:28:25;;;;;;;4.27;1.90;;;;;;;10.73;56.13;99978.50;5031537;28;20212;-59
2022/05/29 01:31:18;;;;;;;4.17;1.87;;;;;;;10.75;55.96;99974.13;5029897;28;20625;-59
2022/05/29 01:34:00;;;;;;;3.67;1.80;;;;;;;10.74;55.55;99964.75;5036075;28;20190;-60
2022/05/29 01:36:38;;;;;;;4.57;2.10;;;;;;;10.68;55.89;99960.78;5030038;28;20178;-59
2022/05/29 01:39:12;;;;;;;7.13;2.27;;;;;;;10.53;56.09;99959.94;5031573;28;20224;-60
2022/05/29 01:41:48;;;;;;;7.00;2.23;;;;;;;10.42;56.04;99957.94;5052492;28;20236;-58
2022/05/29 01:44:20;;;;;;;7.40;1.90;;;;;;;10.59;56.55;99959.56;5043332;28;20173;-58
2022/05/29 01:46:51;;;;;;;5.07;2.10;;;;;;;10.68;55.49;99958.22;5066386;28;20185;-58
2022/05/29 01:49:19;;;;;;;5.33;1.70;;;;;;;10.76;55.85;99958.59;5050040;28;20227;-58
2022/05/29 01:52:10;;;;;;;6.67;2.03;;;;;;;10.68;55.92;99954.81;5053635;28;20240;-59
2022/05/29 01:54:53;;;;;;;4.73;1.90;;;;;;;10.75;56.32;99945.81;5051249;28;20326;-59
2022/05/29 01:57:25;;;;;;;4.97;2.07;;;;;;;10.65;57.27;99950.66;5066342;28;20407;-59
2022/05/29 01:59:59;;;;;;;6.90;2.13;;;;;;;10.58;57.83;99952.78;5048347;28;20605;-58
2022/05/29 02:02:36;;;;;;;5.27;2.10;;;;;;;10.53;57.41;99949.63;5039265;28;20236;-58
2022/05/29 02:05:07;;;;;;;5.63;2.30;;;;;;;10.57;58.43;99948.53;5046778;28;20169;-58
2022/05/29 02:07:48;;;;;;;5.83;1.87;;;;;;;10.43;58.97;99949.31;5049531;28;20189;-58
2022/05/29 02:10:16;;;;;;;7.07;1.90;;;;;;;10.42;58.73;99941.69;5059297;28;20716;-58
2022/05/29 02:12:49;;;;;;;5.43;1.93;;;;;;;10.23;59.60;99941.84;5081070;28;20208;-58
2022/05/29 02:15:20;;;;;;;5.93;2.03;;;;;;;10.12;58.63;99945.00;5030883;28;20185;-58
2022/05/29 02:17:50;;;;;;;2.23;1.40;;;;;;;9.97;58.67;99941.53;5062308;28;20185;-58
2022/05/29 02:20:23;;;;;;;4.50;1.77;;;;;;;9.86;59.23;99939.59;5056099;28;20241;-57
2022/05/29 02:22:54;;;;;;;3.90;1.93;;;;;;;9.79;59.74;99938.25;5057443;28;20740;-59
2022/05/29 02:25:24;;;;;;;5.87;1.97;;;;;;;9.82;59.64;99938.91;5062938;28;20169;-58
2022/05/29 02:28:10;;;;;;;5.60;2.07;;;;;;;9.71;59.88;99941.22;5045623;28;20209;-59
2022/05/29 02:30:52;;;;;;;8.30;2.10;;;;;;;9.72;59.88;99932.59;5058584;28;20236;-58
2022/05/29 02:33:24;;;;;;;7.10;2.93;;;;;;;9.70;60.24;99934.44;5059845;28;20260;-58
2022/05/29 02:36:19;;;;;;;4.70;2.27;;;;;;;9.49;60.75;99931.28;5049145;28;20170;-59
2022/05/29 02:39:15;;;;;;;4.67;2.30;;;;;;;9.57;61.07;99933.44;5053745;28;20185;-58
2022/05/29 02:41:50;;;;;;;6.23;1.90;;;;;;;9.55;60.82;99924.97;4944105;28;20239;-58
2022/05/29 02:44:26;;;;;;;8.17;2.10;;;;;;;9.57;61.53;99926.53;4971940;28;20658;-57
2022/05/29 02:47:18;;;;;;;8.03;2.07;;;;;;;9.55;61.72;99917.25;4956739;28;20230;-58
2022/05/29 02:50:17;;;;;;;5.43;2.20;;;;;;;9.34;62.05;99922.59;4972834;28;20188;-58
2022/05/29 02:52:43;;;;;;;6.83;1.80;;;;;;;9.31;62.74;99917.66;4947205;28;20226;-61
2022/05/29 02:55:08;;;;;;;7.10;1.70;;;;;;;9.14;63.09;99915.94;4957216;28;20184;-58
2022/05/29 02:57:34;;;;;;;10.33;2.10;;;;;;;9.03;64.03;99911.38;4972778;28;20544;-58
2022/05/29 03:00:07;;;;;;;4.37;2.37;;;;;;;8.91;65.13;99912.00;4973626;28;20560;-58
2022/05/29 03:02:51;;;;;;;6.57;2.07;;;;;;;8.88;65.29;99915.53;4905958;28;20235;-59
2022/05/29 03:05:27;;;;;;;5.90;2.20;;;;;;;8.82;65.77;99905.59;4962348;28;20200;-60
2022/05/29 03:08:23;;;;;;;6.70;2.10;;;;;;;8.92;65.73;99903.38;4937368;29;20308;-59
2022/05/29 03:11:13;;;;;;;6.73;2.07;;;;;;;8.80;66.04;99905.66;4944016;28;20239;-60
2022/05/29 03:13:49;;;;;;;11.63;2.30;;;;;;;8.83;66.42;99908.09;4960977;28;20196;-59
2022/05/29 03:16:43;;;;;;;5.03;2.07;;;;;;;8.72;66.65;99906.06;4962726;28;20698;-58
2022/05/29 03:19:34;;;;;;;8.67;2.30;;;;;;;8.69;67.45;99902.81;5024759;28;20229;-59
2022/05/29 03:22:12;;;;;;;3.13;1.93;;;;;;;8.73;68.37;99909.44;5062040;28;20242;-59
2022/05/29 03:24:51;;;;;;;4.13;2.10;;;;;;;8.73;67.65;99906.88;5069369;28;20199;-59
2022/05/29 03:27:37;;;;;;;5.43;2.43;;;;;;;8.87;67.83;99901.06;5052149;28;20180;-59
2022/05/29 03:30:31;;;;;;;5.97;2.00;;;;;;;8.82;67.40;99906.44;5048878;28;20200;-59
2022/05/29 03:32:59;;;;;;;6.40;2.00;;;;;;;8.81;67.13;99909.91;5014860;28;20247;-59
2022/05/29 03:35:32;;;;;;;2.57;1.77;;;;;;;8.78;67.44;99907.50;5052515;28;20180;-59
2022/05/29 03:37:58;;;;;;;6.10;2.13;;;;;;;8.79;68.36;99908.31;5052060;28;20191;-59
2022/05/29 03:40:27;;;;;;;7.37;1.90;;;;;;;8.90;67.55;99903.47;5044873;28;20227;-59
2022/05/29 03:42:53;;;;;;;2.90;2.40;;;;;;;9.04;67.23;99910.44;5051920;28;20203;-59
2022/05/29 03:45:18;;;;;;;3.90;1.83;;;;;;;8.98;66.86;99905.63;5069160;28;20196;-60
2022/05/29 03:47:44;;;;;;;6.87;2.23;;;;;;;9.01;67.34;99911.44;5052991;28;20176;-59
2022/05/29 03:50:16;;;;;;;7.17;2.33;;;;;;;9.10;67.12;99906.75;5043947;28;20232;-59
2022/05/29 03:52:43;;;;;;;4.70;2.47;;;;;;;9.10;66.57;99912.72;5066953;28;20223;-59
2022/05/29 03:55:09;;;;;;;7.07;2.20;;;;;;;9.16;66.91;99909.81;5052034;28;20180;-59
2022/05/29 03:57:35;;;;;;;6.43;1.97;;;;;;;9.02;66.90;99912.28;5051145;28;20287;-59
2022/05/29 04:00:01;;;;;;;7.80;2.07;;;;;;;9.08;67.25;99909.41;5050703;28;20199;-58
2022/05/29 04:02:26;;;;;;;5.13;2.83;;;;;;;9.13;66.63;99904.03;5047294;28;20237;-59
2022/05/29 04:04:52;;;;;;;3.87;1.63;;;;;;;9.20;66.13;99902.78;5033409;28;20212;-58
2022/05/29 04:07:17;;;;;;;8.67;2.40;;;;;;;9.23;66.38;99902.66;5032784;28;20311;-59
2022/05/29 04:12:26;;;;;;;8.10;2.17;;;;;;;9.22;67.32;99895.84;5055434;28;20703;-59
2022/05/29 04:14:52;;;;;;;5.67;2.00;;;;;;;9.24;67.40;99898.34;5050851;28;20177;-59
2022/05/29 04:17:19;;;;;;;7.13;1.90;;;;;;;9.27;68.43;99903.31;5052654;28;20704;-59
2022/05/29 04:19:45;;;;;;;4.07;1.90;;;;;;;9.26;68.09;99899.91;5050149;28;20238;-67
2022/05/29 04:22:14;;;;;;;4.13;1.70;;;;;;;9.20;68.26;99901.09;5074334;28;20226;-65
2022/05/29 04:24:39;;;;;;;5.30;1.87;;;;;;;9.26;68.66;99902.47;5052429;28;20188;-66
2022/05/29 04:27:08;;;;;;;5.13;1.90;;;;;;;9.35;66.67;99898.59;5052548;28;20215;-67
2022/05/29 04:29:34;;;;;;;4.17;1.67;;;;;;;9.26;66.15;99896.53;5052313;28;20535;-66
2022/05/29 04:34:43;;;;;;;5.60;2.30;;;;;;;9.32;66.57;99891.91;5052740;28;20653;-66
2022/05/29 04:37:08;;;;;;;6.47;1.90;;;;;;;9.44;66.67;99887.88;5051816;28;20177;-66
2022/05/29 04:39:36;;;;;;;5.23;1.93;;;;;;;9.63;65.20;99897.16;5052328;28;20256;-66
2022/05/29 04:42:02;;;;;;;6.60;2.10;;;;;;;9.77;64.24;99889.50;5057269;28;20315;-67
2022/05/29 04:44:29;;;;;;;5.47;1.80;;;;;;;9.71;64.59;99886.44;5052168;28;20177;-66
2022/05/29 04:46:57;;;;;;;4.00;1.87;;;;;;;9.87;64.29;99894.97;5051849;28;20663;-66
2022/05/29 04:49:22;;;;;;;5.43;1.90;;;;;;;9.78;64.40;99895.47;5052180;28;20192;-66
2022/05/29 04:51:47;;;;;;;6.13;2.10;;;;;;;9.91;63.51;99887.91;5055290;28;20265;-66
2022/05/29 04:54:13;;;;;;;5.63;2.30;;;;;;;9.97;63.53;99888.44;5053940;28;20227;-66
2022/05/29 04:56:38;;;;;;;4.63;1.67;;;;;;;10.08;63.19;99892.94;5051443;28;20596;-66
2022/05/29 04:59:03;;;;;;;5.17;1.70;;;;;;;10.05;62.97;99894.84;5045755;28;20189;-67
2022/05/29 05:01:28;;;;;;;7.87;2.23;;;;;;;10.04;63.53;99894.03;5046565;28;20232;-66
2022/05/29 05:03:54;;;;;;;4.77;1.90;;;;;;;9.78;64.46;99896.31;5041019;28;20175;-66
2022/05/29 05:06:20;;;;;;;4.93;1.70;;;;;;;9.81;64.37;99891.00;5031281;28;20261;-67
2022/05/29 05:08:45;;;;;;;3.87;1.77;;;;;;;9.70;65.09;99890.78;5031777;28;20604;-67
2022/05/29 05:11:10;;;;;;;3.40;1.80;;;;;;;9.91;64.90;99893.06;5039726;28;20242;-67
2022/05/29 05:13:35;;;;;;;5.00;1.63;;;;;;;10.03;64.38;99894.94;5052632;28;20173;-67
2022/05/29 05:16:02;;;;;;;7.00;2.20;;;;;;;10.28;63.20;99893.56;5051121;28;20555;-66
2022/05/29 05:18:28;;;;;;;4.40;1.47;;;;;;;10.27;62.52;99890.19;5051194;28;20217;-66
2022/05/29 05:20:53;;;;;;;4.23;1.57;;;;;;;10.39;62.44;99891.25;5047158;28;20252;-66
2022/05/29 05:23:18;;;;;;;7.97;2.20;;;;;;;10.63;61.51;99890.75;5066907;28;20285;-67
2022/05/29 05:25:44;;;;;;;4.37;1.57;;;;;;;10.62;61.03;99882.22;5051093;28;20177;-67
2022/05/29 05:28:09;;;;;;;4.20;1.87;;;;;;;10.55;60.77;99892.97;5050791;28;20238;-66
2022/05/29 05:30:34;;;;;;;5.80;1.93;;;;;;;10.49;60.91;99891.56;5059458;28;20225;-65
2022/05/29 05:33:00;;;;;;;3.77;1.70;;;;;;;10.56;61.38;99900.56;5062500;28;20323;-66
2022/05/29 05:35:25;;;;;;;6.30;2.20;;;;;;;10.75;61.25;99892.59;5050953;28;20185;-66
2022/05/29 05:37:50;;;;;;;9.37;1.80;;;;;;;10.59;60.79;99889.28;5051039;28;20180;-66
2022/05/29 05:40:16;;;;;;;3.20;1.90;;;;;;;10.20;61.57;99888.06;5041281;28;20176;-67
2022/05/29 05:42:41;;;;;;;3.87;1.40;;;;;;;10.27;61.29;99885.06;5064529;28;20201;-65
2022/05/29 05:45:10;;;;;;;4.53;1.63;;;;;;;10.47;61.50;99889.06;5032345;28;20610;-66
2022/05/29 05:47:35;;;;;;;3.13;1.70;;;;;;;10.37;60.65;99887.13;5030329;28;20200;-65
2022/05/29 05:50:01;;;;;;;5.27;2.10;;;;;;;10.63;60.40;99886.44;5031039;28;20179;-66
2022/05/29 05:52:26;;;;;;;6.90;2.10;;;;;;;10.72;59.62;99890.22;5036402;28;20582;-66
2022/05/29 05:54:52;;;;;;;4.07;1.63;;;;;;;10.73;59.45;99893.63;5031045;28;20183;-66
2022/05/29 05:57:18;;;;;;;4.87;2.00;;;;;;;10.73;59.98;99891.88;5018370;28;20709;-66
2022/05/29 05:59:44;;;;;;;6.40;2.87;;;;;;;10.86;58.89;99886.84;5030936;28;20185;-66
2022/05/29 06:02:09;;;;;;;5.93;1.33;;;;;;;10.80;58.91;99887.19;5037100;28;20237;-67
2022/05/29 06:04:40;;;;;;;4.37;1.70;;;;;;;10.81;58.74;99886.28;5049405;28;20584;-65
2022/05/29 06:07:06;;;;;;;6.53;2.30;;;;;;;11.09;58.13;99884.66;5028861;28;20652;-66
2022/05/29 06:09:32;;;;;;;3.67;2.00;;;;;;;11.28;56.52;99895.47;5012861;28;20178;-64
2022/05/29 06:11:57;;;;;;;5.03;1.43;;;;;;;11.59;56.41;99893.59;5014619;28;20236;-65
2022/05/29 06:14:23;;;;;;;4.40;1.70;;;;;;;11.93;53.97;99894.06;5012867;28;20194;-65
2022/05/29 06:16:48;;;;;;;7.33;1.37;;;;;;;12.13;53.41;99899.75;5010158;28;20189;-66
2022/05/29 06:19:14;;;;;;;5.93;1.60;;;;;;;12.11;53.28;99891.25;5010393;28;20312;-64
2022/05/29 06:21:39;;;;;;;6.93;1.60;;;;;;;12.67;51.60;99896.22;5012576;28;20225;-64
2022/05/29 06:24:05;;;;;;;3.77;1.63;;;;;;;13.35;49.17;99889.03;5018914;28;20230;-65
2022/05/29 06:26:31;;;;;;;4.63;1.60;;;;;;;13.99;47.97;99887.19;5009261;28;20174;-65
2022/05/29 06:28:56;;;;;;;4.97;1.60;;;;;;;15.19;44.86;99884.41;5011564;28;20570;-65
2022/05/29 06:31:22;;;;;;;2.77;1.30;;;;;;;14.69;44.36;99881.19;5012463;28;20228;-66
2022/05/29 06:33:47;;;;;;;3.43;1.30;;;;;;;15.43;43.17;99877.31;5014985;28;20190;-65
2022/05/29 06:36:15;;;;;;;3.23;1.40;;;;;;;15.91;41.96;99878.72;5008184;28;20252;-66
2022/05/29 06:38:42;;;;;;;4.10;1.60;;;;;;;16.19;41.73;99888.66;5010357;28;20290;-66
2022/05/29 06:41:10;;;;;;;4.50;1.60;;;;;;;16.40;40.26;99884.28;5008886;28;21085;-65
2022/05/29 06:43:36;;;;;;;3.07;1.17;;;;;;;16.21;40.96;99887.59;5021049;28;20653;-66
2022/05/29 06:46:03;;;;;;;3.33;1.47;;;;;;;16.71;39.01;99888.72;5009938;28;20599;-65
2022/05/29 06:48:31;;;;;;;5.70;1.80;;;;;;;15.66;40.55;99882.44;5010913;28;20191;-66
2022/05/29 06:50:57;;;;;;;2.70;1.20;;;;;;;16.46;40.10;99883.78;5028914;28;20224;-66
2022/05/29 06:53:22;;;;;;;3.07;1.10;;;;;;;16.82;38.69;99885.19;5046173;28;20240;-66
2022/05/29 06:55:55;;;;;;;4.77;1.50;;;;;;;17.20;37.81;99894.13;5023150;28;20660;-66
2022/05/29 06:58:21;;;;;;;5.43;1.63;;;;;;;18.04;36.54;99877.34;5018656;28;20218;-65
2022/05/29 07:08:58;;;;;;;3.30;1.40;;;;;;;16.71;37.41;99880.94;5023520;28;20216;-65
2022/05/29 07:11:27;;;;;;;3.40;1.50;;;;;;;16.16;38.99;99881.91;5047416;28;20227;-64
2022/05/29 07:13:54;;;;;;;3.17;1.10;;;;;;;16.52;38.26;99881.63;5059509;28;20240;-58
2022/05/29 07:16:19;;;;;;;3.20;1.20;;;;;;;18.16;35.58;99875.38;5052032;28;20231;-59
2022/05/29 07:18:45;;;;;;;7.60;1.73;;;;;;;19.92;32.81;99871.25;5061680;28;20535;-59
2022/05/29 07:21:11;;;;;;;4.97;1.33;;;;;;;21.42;30.02;99880.59;5057955;28;20335;-61
2022/05/29 07:23:37;;;;;;;3.90;1.20;;;;;;;21.77;29.68;99875.31;5065035;28;20609;-59
2022/05/29 07:26:03;;;;;;;3.83;1.27;;;;;;;21.11;30.19;99875.94;5052440;28;20201;-68
2022/05/29 07:28:29;;;;;;;2.73;1.27;;;;;;;20.98;30.81;99885.19;5052927;28;20287;-59
2022/05/29 07:30:55;;;;;;;5.23;1.43;;;;;;;22.49;28.44;99869.41;5022412;28;20229;-60
2022/05/29 07:33:21;;;;;;;2.80;0.97;;;;;;;21.08;28.87;99881.47;5033221;28;20197;-60
2022/05/29 07:35:47;;;;;;;2.07;1.10;;;;;;;18.97;32.10;99880.16;5032290;28;20186;-60
2022/05/29 07:38:12;;;;;;;3.13;1.30;;;;;;;19.20;31.63;99882.38;5033409;28;20182;-61
2022/05/29 07:40:38;;;;;;;2.83;0.90;;;;;;;18.76;32.65;99884.75;5046968;28;20340;-59
2022/05/29 07:43:18;;;;;;;2.83;1.17;;;;;;;18.97;31.65;99879.34;5056055;28;20605;-60
2022/05/29 07:45:46;;;;;;;4.23;1.20;;;;;;;18.11;33.56;99880.19;5032273;28;20197;-60
2022/05/29 07:48:13;;;;;;;5.67;1.00;;;;;;;17.16;35.76;99887.56;5036150;28;20625;-59
2022/05/29 07:50:38;;;;;;;3.33;1.10;;;;;;;20.69;31.60;99870.63;5024993;28;20802;-61
2022/05/29 07:53:03;;;;;;;2.13;1.00;;;;;;;22.78;26.81;99870.63;5042328;28;20181;-60
2022/05/29 07:55:30;;;;;;;3.57;1.40;;;;;;;22.52;26.72;99876.09;5033510;28;20170;-60
2022/05/29 07:57:55;;;;;;;3.40;0.90;;;;;;;24.49;25.17;99873.31;5048225;28;20174;-59
2022/05/29 08:00:21;;;;;;;4.13;1.20;;;;;;;25.09;23.36;99886.44;5027930;28;20216;-59
2022/05/29 08:02:46;;;;;;;1.67;0.77;;;;;;;22.96;24.64;99882.69;5062597;28;20208;-59
2022/05/29 08:05:14;;;;;;;3.42;1.33;;;;;;;23.25;25.77;99881.28;5033265;28;20178;-59
2022/05/29 08:07:42;;;;;;;2.28;1.10;;;;;;;24.88;24.42;99884.56;5064310;28;20186;-59
2022/05/29 08:10:08;;;;;;;4.10;1.08;;;;;;;26.25;21.61;99882.97;5056839;28;20270;-59
2022/05/29 08:12:34;;;;;;;3.47;1.15;;;;;;;26.21;22.58;99882.53;5083425;28;20635;-60
2022/05/29 08:14:59;;;;;;;3.58;1.23;;;;;;;26.23;21.05;99884.97;5034074;28;20186;-60
2022/05/29 08:17:25;;;;;;;2.92;1.27;;;;;;;23.04;24.74;99886.09;5032651;28;20187;-58
2022/05/29 08:19:50;;;;;;;2.38;0.90;;;;;;;25.56;22.01;99879.09;5032752;28;20229;-59
2022/05/29 08:22:15;;;;;;;1.60;0.70;;;;;;;26.16;21.04;99879.66;5073177;28;20760;-59
2022/05/29 08:30:43;;;;;;;3.10;0.90;;;;;;;20.38;27.72;99879.78;5045528;28;20230;-59
2022/05/29 08:33:18;;;;;;;3.57;1.20;;;;;;;22.01;25.87;99879.72;5062794;28;20251;-60
2022/05/29 08:35:47;;;;;;;2.10;0.80;;;;;;;23.13;23.89;99863.25;5051090;28;20189;-61
2022/05/29 08:38:15;;;;;;;1.67;0.90;;;;;;;22.29;24.31;99870.69;5050631;28;20181;-60
2022/05/29 08:40:46;;;;;;;1.60;0.83;;;;;;;19.87;27.65;99874.31;5040482;28;20279;-59
2022/05/29 08:43:23;;;;;;;4.33;1.30;;;;;;;20.35;28.66;99871.41;5037820;28;20190;-60
2022/05/29 08:45:50;;;;;;;1.07;0.83;;;;;;;21.76;26.33;99877.09;5030747;28;20272;-59
2022/05/29 08:48:20;;;;;;;1.80;1.20;;;;;;;19.98;27.57;99881.09;5028832;28;20183;-59
2022/05/29 08:50:50;;;;;;;2.57;0.90;;;;;;;18.64;30.14;99874.50;5037931;28;20667;-59
2022/05/29 08:53:36;;;;;;;2.50;1.00;;;;;;;17.29;31.00;99880.38;5050718;28;20184;-58
2022/05/29 08:56:14;;;;;;;3.93;1.00;;;;;;;16.37;31.93;99878.53;5066782;28;20218;-59
2022/05/29 08:59:00;;;;;;;1.57;1.00;;;;;;;16.23;33.15;99877.88;5050507;28;20185;-59
2022/05/29 09:01:35;;;;;;;1.70;1.20;;;;;;;17.14;32.20;99873.88;5052007;28;20319;-65
2022/05/29 09:04:11;;;;;;;2.43;1.30;;;;;;;17.07;32.91;99879.59;5067129;28;20635;-58
2022/05/29 09:06:48;;;;;;;3.83;1.17;;;;;;;16.58;33.83;99862.94;5050048;28;20231;-59
2022/05/29 09:09:24;;;;;;;3.57;1.20;;;;;;;16.15;35.09;99862.13;5050377;28;20191;-60
2022/05/29 09:12:01;;;;;;;3.30;1.30;;;;;;;17.15;33.76;99857.34;5039691;28;20236;-59
2022/05/29 09:14:47;;;;;;;2.33;1.20;;;;;;;19.85;30.17;99852.75;5051651;28;20205;-58
2022/05/29 09:17:21;;;;;;;1.77;1.00;;;;;;;23.02;25.50;99845.28;5049694;28;20196;-59
2022/05/29 09:20:13;;;;;;;1.83;0.83;;;;;;;25.35;21.37;99853.53;5051328;28;20375;-59
2022/05/29 09:22:46;;;;;;;1.30;0.80;;;;;;;22.66;24.42;99846.59;5040108;28;20332;-59
2022/05/29 09:25:21;;;;;;;2.27;1.00;;;;;;;20.98;26.04;99851.22;5050261;28;20184;-59
2022/05/29 09:27:47;;;;;;;3.20;1.10;;;;;;;18.04;30.10;99851.31;5051040;28;20192;-59
2022/05/29 09:30:13;;;;;;;2.90;0.93;;;;;;;16.44;33.98;99849.31;5040921;28;20173;-58
2022/05/29 09:32:47;;;;;;;1.83;0.93;;;;;;;16.36;33.41;99851.75;5065330;28;20272;-59
2022/05/29 09:35:21;;;;;;;1.30;0.93;;;;;;;16.53;32.23;99849.53;5049652;28;20173;-59
2022/05/29 09:37:59;;;;;;;3.47;1.30;;;;;;;16.27;32.94;99852.50;5049323;28;20181;-59
2022/05/29 09:40:33;;;;;;;3.53;1.00;;;;;;;16.80;32.77;99853.34;5042542;28;20328;-60
2022/05/29 09:43:12;;;;;;;2.13;1.20;;;;;;;16.99;32.97;99850.84;5066298;28;20207;-59
2022/05/29 09:45:38;;;;;;;3.23;1.27;;;;;;;16.91;33.11;99845.47;5047896;28;20181;-60
2022/05/29 09:51:30;;;;;;;1.73;0.80;;;;;;;17.77;31.35;99841.56;5048185;28;20284;-58
2022/05/29 09:54:03;;;;;;;2.87;0.90;;;;;;;17.84;31.46;99837.47;5034182;28;20178;-58
2022/05/29 09:56:31;;;;;;;2.07;1.00;;;;;;;16.89;31.47;99832.63;5029436;28;20594;-59
2022/05/29 09:59:12;;;;;;;2.90;1.13;;;;;;;17.94;30.41;99832.25;5031204;28;20289;-59
2022/05/29 10:01:42;;;;;;;1.23;0.73;;;;;;;18.89;29.26;99822.72;5035669;28;20236;-60
2022/05/29 10:04:34;;;;;;;2.63;1.10;;;;;;;21.13;26.96;99818.22;5036758;28;20170;-60
2022/05/29 10:07:10;;;;;;;1.70;0.90;;;;;;;21.69;25.95;99817.69;5050426;28;20189;-59
2022/05/29 10:09:57;;;;;;;2.77;1.10;;;;;;;25.08;22.58;99819.84;5051085;28;20222;-58
2022/05/29 10:12:35;;;;;;;1.43;0.90;;;;;;;24.71;21.80;99821.66;5039210;28;20221;-59
2022/05/29 10:15:00;;;;;;;3.77;1.10;;;;;;;24.01;23.29;99815.78;5049397;28;20244;-60
2022/05/29 10:17:28;;;;;;;3.57;1.00;;;;;;;22.53;23.58;99826.13;5050545;28;20182;-59
2022/05/29 10:19:54;;;;;;;2.23;0.97;;;;;;;20.81;24.57;99827.59;5050577;28;20229;-60
2022/05/29 10:22:38;;;;;;;2.07;1.30;;;;;;;20.08;25.47;99810.50;5056001;28;20363;-61
2022/05/29 10:25:22;;;;;;;1.90;0.90;;;;;;;21.94;25.70;99810.66;5049396;28;20615;-60
2022/05/29 10:27:50;;;;;;;2.80;1.10;;;;;;;24.24;23.59;99804.41;5048788;28;20613;-60
2022/05/29 10:30:33;;;;;;;4.00;1.47;;;;;;;23.56;22.48;99809.59;5040550;28;20182;-60
2022/05/29 10:33:07;;;;;;;3.30;1.40;;;;;;;22.54;24.00;99798.13;5066076;28;20193;-60
2022/05/29 10:35:35;;;;;;;1.83;0.97;;;;;;;20.50;26.34;99812.38;5049107;28;20181;-59
2022/05/29 10:38:17;;;;;;;3.50;1.47;;;;;;;17.46;28.75;99808.69;5048980;28;20177;-59
2022/05/29 10:40:44;;;;;;;2.17;1.10;;;;;;;17.61;29.82;99798.69;5038525;28;20279;-59
2022/05/29 10:43:09;;;;;;;2.10;1.03;;;;;;;17.78;30.76;99797.19;5027783;28;20229;-60
2022/05/29 10:45:46;;;;;;;1.47;0.90;;;;;;;17.38;30.61;99796.38;5039803;28;20216;-59
2022/05/29 10:48:37;;;;;;;2.70;0.93;;;;;;;17.39;31.79;99797.16;5048935;28;20169;-58
2022/05/29 10:51:33;;;;;;;2.40;1.03;;;;;;;17.55;31.10;99787.06;5032165;28;20229;-59
2022/05/29 10:54:22;;;;;;;3.20;1.07;;;;;;;17.73;30.54;99788.97;5034476;28;20178;-62
2022/05/29 10:57:25;;;;;;;1.93;1.30;;;;;;;17.88;29.96;99781.56;5030605;28;20175;-59
2022/05/29 11:00:23;;;;;;;2.83;0.83;;;;;;;18.21;30.62;99784.72;5033028;28;20204;-59
2022/05/29 11:03:18;;;;;;;1.20;0.80;;;;;;;18.05;29.70;99778.28;4999359;28;20312;-59
2022/05/29 11:06:21;;;;;;;3.60;1.10;;;;;;;18.50;30.33;99773.38;5052727;28;20527;-59
2022/05/29 11:09:05;;;;;;;1.97;1.00;;;;;;;18.84;29.08;99773.63;5053737;28;20569;-59
2022/05/29 11:11:55;;;;;;;3.03;1.30;;;;;;;18.30;29.82;99772.63;5055123;28;20663;-59
2022/05/29 11:14:29;;;;;;;2.47;1.30;;;;;;;18.38;32.03;99770.94;5069409;28;20185;-60
2022/05/29 11:17:11;;;;;;;2.07;1.00;;;;;;;18.01;28.35;99768.28;5057774;28;20243;-60
2022/05/29 11:20:09;;;;;;;3.60;1.10;;;;;;;18.15;28.51;99767.06;5053777;28;20259;-59
2022/05/29 11:22:50;;;;;;;1.43;0.93;;;;;;;18.57;28.01;99765.78;5042651;28;20213;-59
2022/05/29 11:25:46;;;;;;;2.23;0.90;;;;;;;18.91;29.29;99754.84;5052679;28;20173;-60
2022/05/29 11:28:45;;;;;;;2.63;1.07;;;;;;;18.51;28.01;99764.59;5032088;28;20313;-59
2022/05/29 11:31:29;;;;;;;1.10;0.90;;;;;;;18.38;30.49;99757.94;5011992;28;20256;-60
2022/05/29 11:34:03;;;;;;;2.63;1.10;;;;;;;18.32;29.98;99752.47;5037945;28;20182;-60
2022/05/29 11:36:47;;;;;;;1.47;0.80;;;;;;;17.43;30.14;99743.97;5033470;28;20181;-61
2022/05/29 11:39:29;;;;;;;1.93;0.90;;;;;;;17.20;31.67;99748.59;5046281;28;20223;-58
2022/05/29 11:42:06;;;;;;;1.23;1.00;;;;;;;18.10;32.66;99740.59;5028664;28;20224;-60
2022/05/29 11:44:42;;;;;;;2.20;1.23;;;;;;;19.15;32.80;99731.63;5053213;28;20273;-59
2022/05/29 11:53:26;;;;;;;1.77;1.00;;;;;;;18.85;29.56;99730.13;5063741;28;20200;-59
2022/05/29 11:55:56;;;;;;;3.33;1.00;;;;;;;18.84;29.15;99728.50;5051941;28;20173;-59
2022/05/29 11:58:44;;;;;;;1.83;1.10;;;;;;;18.84;29.16;99729.34;5051497;28;20637;-59
2022/05/29 12:01:15;;;;;;;2.07;0.93;;;;;;;18.16;28.70;99719.22;5051673;28;20315;-59
2022/05/29 12:03:44;;;;;;;0.97;0.87;;;;;;;18.16;29.26;99720.06;5068921;28;20185;-59
2022/05/29 12:06:22;;;;;;;1.43;1.20;;;;;;;17.06;30.77;99709.03;5052806;28;20180;-59
2022/05/29 12:09:05;;;;;;;1.83;0.83;;;;;;;18.10;29.83;99712.81;5053172;28;20597;-59
2022/05/29 12:11:42;;;;;;;2.60;1.10;;;;;;;18.36;30.05;99712.19;5053699;28;20228;-59
2022/05/29 12:14:21;;;;;;;3.37;1.20;;;;;;;17.94;29.90;99710.81;5068305;28;20188;-59
2022/05/29 12:16:50;;;;;;;2.03;0.90;;;;;;;17.93;31.19;99709.13;5051099;28;20205;-60
2022/05/29 12:19:19;;;;;;;1.20;0.90;;;;;;;17.86;32.29;99701.06;5051291;28;20259;-60
2022/05/29 12:21:50;;;;;;;3.00;1.07;;;;;;;17.52;31.85;99703.31;5044226;28;20232;-60
2022/05/29 12:24:22;;;;;;;1.30;1.00;;;;;;;17.42;31.71;99698.13;5051578;28;20324;-59
2022/05/29 12:27:03;;;;;;;1.03;0.93;;;;;;;17.79;31.26;99691.38;5051004;28;20173;-59